createdAt,value
2017-11-27T00:00:08.127Z,12.40
2017-11-27T00:02:35.112Z,8.65
2017-11-27T00:05:01.497Z,11.02
2017-11-27T00:07:27.784Z,12.63
2017-11-27T00:09:54.026Z,15.52
2017-11-27T00:12:21.033Z,9.27
2017-11-27T00:14:47.295Z,11.82
2017-11-27T00:17:14.364Z,9.70
2017-11-27T00:19:41.356Z,11.55
2017-11-27T00:22:08.174Z,8.05
2017-11-27T00:24:34.433Z,10.00
2017-11-27T00:27:00.713Z,14.23
2017-11-27T00:29:27.031Z,11.02
2017-11-27T00:31:53.311Z,13.98
2017-11-27T00:34:19.547Z,10.65
2017-11-27T00:36:45.781Z,9.20
2017-11-27T00:39:12.016Z,9.27
2017-11-27T00:41:38.255Z,9.93
2017-11-27T00:44:05.280Z,14.32
2017-11-27T00:46:31.550Z,8.57
2017-11-27T00:48:57.876Z,10.98
2017-11-27T00:51:24.123Z,12.40
2017-11-27T00:53:50.462Z,9.88
2017-11-27T00:56:27.970Z,10.43
2017-11-27T00:58:54.959Z,13.90
2017-11-27T01:01:21.234Z,10.73
2017-11-27T01:03:47.530Z,11.38
2017-11-27T01:06:13.803Z,12.55
2017-11-27T01:08:40.827Z,10.93
2017-11-27T01:11:07.157Z,12.52
2017-11-27T01:13:33.386Z,13.88
2017-11-27T01:15:59.638Z,11.75
2017-11-27T01:18:25.907Z,14.93
2017-11-27T01:20:52.147Z,15.63
2017-11-27T01:23:19.107Z,9.55
2017-11-27T01:25:45.365Z,12.00
2017-11-27T01:28:11.616Z,12.60
2017-11-27T01:30:38.613Z,10.95
2017-11-27T01:33:04.854Z,13.48
2017-11-27T01:35:31.111Z,12.15
2017-11-27T01:37:58.114Z,14.80
2017-11-27T01:40:24.355Z,10.48
2017-11-27T01:42:50.696Z,10.02
2017-11-27T01:45:17.672Z,11.00
2017-11-27T01:47:43.965Z,9.23
2017-11-27T01:50:10.348Z,12.93
2017-11-27T01:52:37.333Z,13.02
2017-11-27T01:55:03.556Z,10.65
2017-11-27T01:57:30.063Z,12.85
2017-11-27T01:59:56.384Z,11.07
2017-11-27T02:02:22.710Z,14.60
2017-11-27T02:04:48.979Z,10.93
2017-11-27T02:07:15.202Z,11.85
2017-11-27T02:09:41.479Z,16.98
2017-11-27T02:12:08.468Z,9.35
2017-11-27T02:14:34.764Z,15.95
2017-11-27T02:17:01.034Z,12.98
2017-11-27T02:19:27.317Z,12.25
2017-11-27T02:21:54.307Z,10.27
2017-11-27T02:24:20.647Z,12.07
2017-11-27T02:26:47.700Z,9.63
2017-11-27T02:29:13.943Z,9.93
2017-11-27T02:31:40.919Z,12.00
2017-11-27T02:34:07.173Z,10.93
2017-11-27T02:36:33.472Z,10.95
2017-11-27T02:39:00.564Z,6.87
2017-11-27T02:41:26.832Z,9.07
2017-11-27T02:43:53.841Z,8.32
2017-11-27T02:46:19.936Z,16.27
2017-11-27T02:48:45.996Z,10.00
2017-11-27T02:51:12.262Z,8.50
2017-11-27T02:53:38.646Z,9.77
2017-11-27T02:56:04.910Z,11.55
2017-11-27T02:58:31.145Z,9.15
2017-11-27T03:00:57.442Z,10.52
2017-11-27T03:03:23.694Z,8.70
2017-11-27T03:05:50.691Z,12.70
2017-11-27T03:08:16.950Z,8.15
2017-11-27T03:10:43.975Z,8.70
2017-11-27T03:13:10.988Z,14.23
2017-11-27T03:15:37.284Z,8.52
2017-11-27T03:18:03.564Z,10.52
2017-11-27T03:20:29.836Z,10.80
2017-11-27T03:22:56.804Z,14.75
2017-11-27T03:25:23.092Z,9.82
2017-11-27T03:27:49.345Z,11.57
2017-11-27T03:30:16.355Z,14.18
2017-11-27T03:32:43.419Z,7.87
2017-11-27T03:35:10.414Z,11.70
2017-11-27T03:37:36.487Z,15.25
2017-11-27T03:40:02.771Z,10.43
2017-11-27T03:42:29.059Z,16.42
2017-11-27T03:44:55.291Z,11.55
2017-11-27T03:47:21.533Z,9.75
2017-11-27T03:49:47.838Z,14.35
2017-11-27T03:52:14.820Z,9.40
2017-11-27T03:54:41.086Z,10.80
2017-11-27T03:57:07.336Z,11.30
2017-11-27T03:59:34.344Z,10.32
2017-11-27T04:02:00.619Z,9.93
2017-11-27T04:04:27.614Z,10.55
2017-11-27T04:06:53.867Z,9.23
2017-11-27T04:09:20.115Z,11.82
2017-11-27T04:11:46.405Z,12.68
2017-11-27T04:14:12.657Z,9.05
2017-11-27T04:16:38.919Z,8.88
2017-11-27T04:19:05.215Z,8.20
2017-11-27T04:21:32.243Z,8.65
2017-11-27T04:23:59.286Z,8.73
2017-11-27T04:26:25.570Z,10.77
2017-11-27T04:28:52.629Z,9.20
2017-11-27T04:31:18.872Z,8.48
2017-11-27T04:33:45.270Z,11.40
2017-11-27T04:36:11.543Z,9.65
2017-11-27T04:38:37.795Z,9.15
2017-11-27T04:41:04.802Z,7.35
2017-11-27T04:43:31.032Z,9.10
2017-11-27T04:45:57.272Z,11.90
2017-11-27T04:48:23.544Z,6.82
2017-11-27T04:50:50.535Z,8.63
2017-11-27T04:53:16.779Z,6.82
2017-11-27T04:55:43.045Z,8.07
2017-11-27T04:58:09.312Z,8.38
2017-11-27T05:00:35.581Z,12.80
2017-11-27T05:03:01.842Z,8.10
2017-11-27T05:05:28.124Z,10.57
2017-11-27T05:07:55.110Z,14.50
2017-11-27T05:10:21.383Z,15.00
2017-11-27T05:12:47.646Z,11.43
2017-11-27T05:15:14.626Z,6.37
2017-11-27T05:17:40.867Z,7.95
2017-11-27T05:20:07.118Z,9.82
2017-11-27T05:22:33.412Z,9.93
2017-11-27T05:24:59.656Z,8.07
2017-11-27T05:27:25.908Z,7.82
2017-11-27T05:29:52.167Z,5.25
2017-11-27T05:32:18.445Z,7.50
2017-11-27T05:34:44.712Z,9.52
2017-11-27T05:37:11.676Z,9.63
2017-11-27T05:39:37.945Z,5.40
2017-11-27T05:42:04.221Z,11.45
2017-11-27T05:44:31.186Z,8.95
2017-11-27T05:46:57.446Z,11.52
2017-11-27T05:49:23.688Z,10.18
2017-11-27T05:51:50.688Z,7.70
2017-11-27T05:54:16.948Z,13.00
2017-11-27T05:56:43.186Z,6.15
2017-11-27T05:59:10.426Z,4.32
2017-11-27T06:01:37.042Z,6.25
2017-11-27T06:04:03.303Z,5.82
2017-11-27T06:06:29.568Z,5.93
2017-11-27T06:08:55.833Z,7.40
2017-11-27T06:11:22.118Z,3.92
2017-11-27T06:13:49.103Z,6.45
2017-11-27T06:16:15.406Z,6.25
2017-11-27T06:18:41.778Z,8.63
2017-11-27T06:21:08.786Z,5.75
2017-11-27T06:23:35.086Z,5.80
2017-11-27T06:26:01.356Z,9.27
2017-11-27T06:28:27.656Z,6.00
2017-11-27T06:30:53.948Z,5.32
2017-11-27T06:33:20.931Z,4.12
2017-11-27T06:35:47.184Z,3.47
2017-11-27T06:38:13.464Z,6.60
2017-11-27T06:40:39.710Z,5.57
2017-11-27T06:43:05.960Z,6.05
2017-11-27T06:45:32.226Z,6.30
2017-11-27T06:47:58.449Z,4.65
2017-11-27T06:50:31.840Z,6.12
2017-11-27T06:52:57.991Z,5.03
2017-11-27T06:55:24.808Z,7.12
2017-11-27T06:57:51.042Z,5.70
2017-11-27T07:00:17.192Z,5.62
2017-11-27T07:02:43.323Z,5.78
2017-11-27T07:05:09.386Z,4.45
2017-11-27T07:07:35.467Z,3.58
2017-11-27T07:10:01.539Z,5.22
2017-11-27T07:12:27.642Z,8.40
2017-11-27T07:14:53.738Z,2.97
2017-11-27T07:17:19.866Z,9.38
2017-11-27T07:19:45.918Z,5.20
2017-11-27T07:22:12.161Z,7.32
2017-11-27T07:24:38.411Z,5.47
2017-11-27T07:27:04.765Z,8.05
2017-11-27T07:29:31.759Z,5.07
2017-11-27T07:31:58.758Z,4.82
2017-11-27T07:34:25.107Z,5.80
2017-11-27T07:36:51.510Z,8.23
2017-11-27T07:39:24.840Z,7.40
2017-11-27T07:41:51.288Z,7.68
2017-11-27T07:44:17.579Z,7.75
2017-11-27T07:46:44.542Z,6.47
2017-11-27T07:49:10.778Z,5.85
2017-11-27T07:51:37.040Z,6.00
2017-11-27T07:54:03.268Z,7.10
2017-11-27T07:56:30.306Z,6.07
2017-11-27T07:58:57.410Z,10.65
2017-11-27T08:01:24.367Z,11.52
2017-11-27T08:03:50.641Z,8.48
2017-11-27T08:06:16.903Z,7.90
2017-11-27T08:08:43.146Z,8.73
2017-11-27T08:11:09.386Z,6.07
2017-11-27T08:16:32.244Z,13.50
2017-11-27T08:18:58.479Z,6.00
2017-11-27T08:21:24.748Z,6.80
2017-11-27T08:23:51.084Z,4.03
2017-11-27T08:26:17.352Z,6.30
2017-11-27T08:28:44.369Z,6.22
2017-11-27T08:31:10.598Z,7.05
2017-11-27T08:33:36.898Z,5.47
2017-11-27T08:36:03.131Z,5.82
2017-11-27T08:38:30.124Z,6.45
2017-11-27T08:40:56.499Z,4.28
2017-11-27T08:43:22.722Z,9.13
2017-11-27T08:45:48.956Z,4.87
2017-11-27T08:48:15.175Z,8.15
2017-11-27T08:50:41.514Z,10.00
2017-11-27T08:53:08.534Z,4.43
2017-11-27T08:55:35.632Z,7.18
2017-11-27T08:58:01.875Z,5.35
2017-11-27T09:00:28.140Z,8.30
2017-11-27T09:02:54.397Z,6.28
2017-11-27T09:05:21.404Z,7.22
2017-11-27T09:07:47.633Z,6.32
2017-11-27T09:10:13.862Z,6.07
2017-11-27T09:12:41.611Z,6.10
2017-11-27T09:15:07.875Z,5.70
2017-11-27T09:17:34.115Z,5.95
2017-11-27T09:20:00.443Z,6.18
2017-11-27T09:22:27.423Z,6.55
2017-11-27T09:24:53.687Z,6.68
2017-11-27T09:27:20.960Z,6.82
2017-11-27T09:29:47.958Z,7.30
2017-11-27T09:32:14.252Z,6.82
2017-11-27T09:34:40.504Z,8.68
2017-11-27T09:37:06.739Z,7.55
2017-11-27T09:39:32.972Z,7.97
2017-11-27T09:41:59.223Z,6.57
2017-11-27T09:44:25.579Z,5.40
2017-11-27T09:46:52.596Z,7.10
2017-11-27T09:49:18.880Z,6.32
2017-11-27T09:51:45.165Z,6.12
2017-11-27T09:54:11.405Z,7.62
2017-11-27T09:56:38.404Z,5.47
2017-11-27T09:59:04.644Z,5.53
2017-11-27T10:01:30.898Z,5.40
2017-11-27T10:03:57.117Z,4.53
2017-11-27T10:06:23.346Z,5.05
2017-11-27T10:08:50.351Z,8.18
2017-11-27T10:11:16.644Z,4.47
2017-11-27T10:13:42.968Z,4.35
2017-11-27T10:16:09.261Z,5.55
2017-11-27T10:18:35.503Z,7.35
2017-11-27T10:21:01.747Z,5.35
2017-11-27T10:23:27.970Z,5.75
2017-11-27T10:25:54.187Z,6.25
2017-11-27T10:28:20.505Z,4.32
2017-11-27T10:30:46.791Z,6.10
2017-11-27T10:33:13.065Z,5.72
2017-11-27T10:35:40.080Z,6.87
2017-11-27T10:38:06.337Z,6.20
2017-11-27T10:40:32.565Z,4.90
2017-11-27T10:42:58.815Z,4.62
2017-11-27T10:45:25.810Z,5.45
2017-11-27T10:47:52.066Z,4.97
2017-11-27T10:50:18.353Z,4.90
2017-11-27T10:52:44.640Z,5.00
2017-11-27T10:55:11.632Z,4.20
2017-11-27T10:57:37.879Z,3.87
2017-11-27T11:00:04.956Z,4.28
2017-11-27T11:02:31.952Z,7.32
2017-11-27T11:04:58.227Z,6.28
2017-11-27T11:07:25.238Z,3.45
2017-11-27T11:09:51.510Z,3.15
2017-11-27T11:12:18.550Z,4.40
2017-11-27T11:14:44.817Z,3.85
2017-11-27T11:17:11.237Z,3.78
2017-11-27T11:19:37.506Z,3.12
2017-11-27T11:22:03.823Z,3.17
2017-11-27T11:24:30.125Z,6.53
2017-11-27T11:26:56.408Z,3.75
2017-11-27T11:29:22.671Z,3.97
2017-11-27T11:31:49.702Z,3.00
2017-11-27T11:34:16.695Z,2.80
2017-11-27T11:36:42.938Z,4.65
2017-11-27T11:39:09.198Z,3.67
2017-11-27T11:41:35.457Z,3.10
2017-11-27T11:44:01.705Z,2.60
2017-11-27T11:46:27.935Z,2.87
2017-11-27T11:48:54.288Z,2.70
2017-11-27T11:51:20.588Z,4.65
2017-11-27T11:53:47.587Z,3.90
2017-11-27T11:56:14.601Z,4.97
2017-11-27T11:58:40.823Z,3.25
2017-11-27T12:01:07.085Z,2.35
2017-11-27T12:03:34.085Z,2.80
2017-11-27T12:06:00.352Z,3.25
2017-11-27T12:08:26.617Z,3.92
2017-11-27T12:10:52.833Z,4.25
2017-11-27T12:13:19.092Z,4.00
2017-11-27T12:15:45.427Z,3.50
2017-11-27T12:18:12.403Z,3.72
2017-11-27T12:20:38.623Z,4.05
2017-11-27T12:23:04.758Z,3.12
2017-11-27T12:25:31.023Z,2.78
2017-11-27T12:27:57.277Z,4.10
2017-11-27T12:30:24.323Z,3.40
2017-11-27T12:32:50.584Z,5.45
2017-11-27T12:35:16.828Z,3.67
2017-11-27T12:37:44.015Z,3.50
2017-11-27T12:40:10.294Z,3.37
2017-11-27T12:42:37.440Z,3.33
2017-11-27T12:45:03.743Z,6.32
2017-11-27T12:47:30.762Z,2.65
2017-11-27T12:49:58.447Z,3.62
2017-11-27T12:52:29.759Z,3.50
2017-11-27T12:54:56.026Z,3.42
2017-11-27T12:57:22.278Z,3.75
2017-11-27T12:59:49.294Z,2.30
2017-11-27T13:02:15.618Z,3.35
2017-11-27T13:04:41.863Z,3.87
2017-11-27T13:07:08.863Z,3.47
2017-11-27T13:09:35.108Z,4.25
2017-11-27T13:12:01.362Z,3.25
2017-11-27T13:14:28.342Z,4.22
2017-11-27T13:16:54.642Z,3.25
2017-11-27T13:19:20.915Z,3.42
2017-11-27T13:21:47.194Z,3.10
2017-11-27T13:24:13.454Z,2.97
2017-11-27T13:26:40.467Z,3.53
2017-11-27T13:29:07.523Z,4.30
2017-11-27T13:31:34.539Z,3.37
2017-11-27T13:34:04.275Z,4.65
2017-11-27T13:36:31.274Z,3.85
2017-11-27T13:38:57.596Z,2.87
2017-11-27T13:41:23.856Z,2.95
2017-11-27T13:43:50.102Z,3.53
2017-11-27T13:46:16.323Z,3.40
2017-11-27T13:48:43.350Z,3.33
2017-11-27T13:51:09.601Z,4.20
2017-11-27T13:53:35.900Z,3.78
2017-11-27T13:56:02.198Z,3.78
2017-11-27T13:58:29.179Z,3.70
2017-11-27T14:00:55.452Z,3.15
2017-11-27T14:03:21.707Z,3.47
2017-11-27T14:05:47.982Z,4.35
2017-11-27T14:08:14.232Z,3.37
2017-11-27T14:10:41.227Z,3.12
2017-11-27T14:13:07.488Z,3.58
2017-11-27T14:15:34.487Z,2.60
2017-11-27T14:18:00.735Z,3.20
2017-11-27T14:20:27.033Z,3.83
2017-11-27T14:22:53.263Z,3.97
2017-11-27T14:25:19.315Z,6.43
2017-11-27T14:27:45.366Z,5.22
2017-11-27T14:30:12.173Z,3.80
2017-11-27T14:32:39.061Z,6.28
2017-11-27T14:35:05.300Z,3.90
2017-11-27T14:37:31.412Z,3.40
2017-11-27T14:39:57.535Z,4.37
2017-11-27T14:42:24.679Z,4.10
2017-11-27T14:44:50.801Z,4.18
2017-11-27T14:47:17.604Z,3.58
2017-11-27T14:49:43.747Z,6.28
2017-11-27T14:52:10.770Z,3.35
2017-11-27T14:54:36.881Z,5.28
2017-11-27T14:57:02.962Z,6.15
2017-11-27T14:59:29.068Z,4.95
2017-11-27T15:01:55.906Z,3.58
2017-11-27T15:04:22.757Z,4.00
2017-11-27T15:06:49.562Z,5.07
2017-11-27T15:09:17.008Z,4.12
2017-11-27T15:11:43.097Z,5.12
2017-11-27T15:14:09.179Z,4.45
2017-11-27T15:16:36.928Z,5.45
2017-11-27T15:19:03.035Z,4.70
2017-11-27T15:21:29.180Z,5.62
2017-11-27T15:23:55.253Z,4.72
2017-11-27T15:26:21.350Z,5.43
2017-11-27T15:28:48.967Z,6.97
2017-11-27T15:31:15.036Z,5.57
2017-11-27T15:33:43.166Z,7.37
2017-11-27T15:36:09.320Z,8.60
2017-11-27T15:38:36.177Z,6.65
2017-11-27T15:41:03.064Z,4.45
2017-11-27T15:43:43.294Z,4.50
2017-11-27T15:46:10.992Z,4.60
2017-11-27T15:48:37.716Z,5.97
2017-11-27T15:51:04.037Z,4.75
2017-11-27T15:53:38.430Z,5.25
2017-11-27T15:56:05.349Z,6.37
2017-11-27T15:58:31.816Z,5.70
2017-11-27T16:03:35.612Z,5.70
2017-11-27T16:06:02.692Z,5.43
2017-11-27T16:08:29.919Z,5.07
2017-11-27T16:10:57.013Z,6.65
2017-11-27T16:13:23.390Z,6.00
2017-11-27T16:15:51.901Z,7.50
2017-11-27T16:18:19.105Z,7.10
2017-11-27T16:20:46.301Z,5.80
2017-11-27T16:23:12.603Z,6.45
2017-11-27T16:25:38.869Z,6.05
2017-11-27T16:28:07.069Z,7.00
2017-11-27T16:30:33.356Z,6.90
2017-11-27T16:32:59.607Z,6.65
2017-11-27T16:35:25.885Z,8.93
2017-11-27T16:37:52.922Z,10.25
2017-11-27T16:40:19.202Z,7.55
2017-11-27T16:42:45.491Z,7.25
2017-11-27T16:45:11.819Z,6.28
2017-11-27T16:47:38.716Z,7.45
2017-11-27T16:50:05.078Z,10.48
2017-11-27T16:52:32.666Z,8.45
2017-11-27T16:54:58.959Z,6.40
2017-11-27T16:57:25.044Z,6.72
2017-11-27T16:59:51.179Z,6.70
2017-11-27T17:02:17.256Z,5.78
2017-11-27T17:04:43.353Z,6.32
2017-11-27T17:07:09.416Z,5.80
2017-11-27T17:09:35.584Z,5.72
2017-11-27T17:12:02.513Z,6.20
2017-11-27T17:14:28.555Z,5.80
2017-11-27T17:16:54.632Z,5.75
2017-11-27T17:19:20.748Z,6.50
2017-11-27T17:21:47.578Z,5.87
2017-11-27T17:24:14.408Z,8.50
2017-11-27T17:26:40.487Z,6.05
2017-11-27T17:29:06.540Z,7.00
2017-11-27T17:31:32.623Z,7.40
2017-11-27T17:33:58.691Z,6.43
2017-11-27T17:36:24.762Z,8.30
2017-11-27T17:38:50.838Z,9.07
2017-11-27T17:41:17.024Z,6.20
2017-11-27T17:43:43.106Z,7.32
2017-11-27T17:46:10.015Z,7.72
2017-11-27T17:48:36.073Z,7.40
2017-11-27T17:51:02.143Z,7.50
2017-11-27T17:53:28.226Z,8.50
2017-11-27T17:56:01.868Z,6.57
2017-11-27T17:58:27.949Z,6.45
2017-11-27T18:00:54.017Z,7.05
2017-11-27T18:03:20.141Z,7.12
2017-11-27T18:05:46.160Z,6.68
2017-11-27T18:08:12.268Z,6.78
2017-11-27T18:10:38.327Z,7.20
2017-11-27T18:13:04.396Z,7.00
2017-11-27T18:15:30.441Z,7.90
2017-11-27T18:17:57.282Z,6.37
2017-11-27T18:20:23.395Z,7.78
2017-11-27T18:22:49.462Z,5.45
2017-11-27T18:25:15.576Z,6.10
2017-11-27T18:27:41.647Z,6.25
2017-11-27T18:30:07.770Z,7.75
2017-11-27T18:32:34.588Z,6.80
2017-11-27T18:35:00.650Z,6.15
2017-11-27T18:37:26.707Z,4.97
2017-11-27T18:39:52.775Z,8.50
2017-11-27T18:42:19.576Z,7.78
2017-11-27T18:44:45.633Z,12.88
2017-11-27T18:47:11.819Z,14.50
2017-11-27T18:49:37.898Z,9.30
2017-11-27T18:52:04.012Z,6.87
2017-11-27T18:54:30.824Z,10.43
2017-11-27T18:56:56.992Z,8.57
2017-11-27T18:59:23.115Z,9.55
2017-11-27T19:01:49.155Z,10.13
2017-11-27T19:04:16.059Z,8.63
2017-11-27T19:06:42.843Z,11.18
2017-11-27T19:09:08.901Z,7.82
2017-11-27T19:11:35.792Z,7.90
2017-11-27T19:14:01.951Z,6.62
2017-11-27T19:16:28.003Z,10.27
2017-11-27T19:18:54.195Z,5.20
2017-11-27T19:21:20.290Z,4.93
2017-11-27T19:23:46.398Z,4.78
2017-11-27T19:26:13.194Z,3.80
2017-11-27T19:28:39.260Z,4.03
2017-11-27T19:31:05.423Z,3.60
2017-11-27T19:33:31.503Z,3.85
2017-11-27T19:35:58.325Z,3.12
2017-11-27T19:38:24.751Z,4.35
2017-11-27T19:40:50.807Z,5.72
2017-11-27T19:43:17.657Z,6.90
2017-11-27T19:45:43.821Z,9.13
2017-11-27T19:48:09.887Z,14.13
2017-11-27T19:50:36.725Z,10.70
2017-11-27T19:53:03.605Z,13.77
2017-11-27T19:55:29.659Z,11.77
2017-11-27T19:57:55.727Z,11.55
2017-11-27T20:00:21.820Z,11.05
2017-11-27T20:02:47.891Z,11.40
2017-11-27T20:05:14.111Z,10.70
2017-11-27T20:07:40.535Z,12.13
2017-11-27T20:10:06.736Z,20.95
2017-11-27T20:12:32.891Z,14.02
2017-11-27T20:14:58.947Z,8.80
2017-11-27T20:17:25.156Z,7.95
2017-11-27T20:19:52.053Z,8.25
2017-11-27T20:22:20.358Z,17.75
2017-11-27T20:24:46.672Z,8.38
2017-11-27T20:27:13.567Z,5.90
2017-11-27T20:29:39.655Z,6.40
2017-11-27T20:32:05.791Z,4.43
2017-11-27T20:34:31.855Z,3.53
2017-11-27T20:36:57.913Z,3.22
2017-11-27T20:39:24.723Z,3.45
2017-11-27T20:41:50.907Z,3.87
2017-11-27T20:44:17.060Z,3.65
2017-11-27T20:46:43.206Z,3.12
2017-11-27T20:49:09.279Z,5.28
2017-11-27T20:51:35.408Z,3.40
2017-11-27T20:54:01.503Z,3.95
2017-11-27T20:56:28.338Z,3.53
2017-11-27T20:58:55.219Z,3.45
2017-11-27T21:01:21.328Z,8.40
2017-11-27T21:03:47.487Z,5.82
2017-11-27T21:06:13.550Z,5.25
2017-11-27T21:08:41.529Z,9.13
2017-11-27T21:11:08.327Z,6.20
2017-11-27T21:13:34.479Z,11.88
2017-11-27T21:16:01.311Z,7.75
2017-11-27T21:18:27.487Z,11.98
2017-11-27T21:20:53.570Z,12.00
2017-11-27T21:23:20.439Z,10.20
2017-11-27T21:25:46.523Z,10.68
2017-11-27T21:28:12.599Z,11.55
2017-11-27T21:30:39.527Z,15.48
2017-11-27T21:33:05.664Z,16.37
2017-11-27T21:35:31.732Z,10.98
2017-11-27T21:37:57.792Z,7.95
2017-11-27T21:40:23.846Z,8.57
2017-11-27T21:42:49.914Z,6.50
2017-11-27T21:45:16.731Z,9.50
2017-11-27T21:47:42.783Z,4.85
2017-11-27T21:50:09.615Z,3.83
2017-11-27T21:52:35.772Z,3.20
2017-11-27T21:55:02.610Z,3.35
2017-11-27T21:57:28.675Z,3.60
2017-11-27T21:59:54.735Z,4.82
2017-11-27T22:02:20.808Z,4.10
2017-11-27T22:04:46.871Z,3.90
2017-11-27T22:07:13.022Z,3.17
2017-11-27T22:09:39.847Z,3.17
2017-11-27T22:12:05.989Z,4.00
2017-11-27T22:14:32.787Z,5.12
2017-11-27T22:16:58.840Z,6.18
2017-11-27T22:19:25.635Z,5.75
2017-11-27T22:21:51.711Z,4.75
2017-11-27T22:24:18.522Z,6.03
2017-11-27T22:26:44.806Z,3.97
2017-11-27T22:29:10.908Z,2.67
2017-11-27T22:31:37.705Z,3.55
2017-11-27T22:34:04.541Z,3.47
2017-11-27T22:36:30.586Z,3.33
2017-11-27T22:38:56.635Z,3.58
2017-11-27T22:41:23.420Z,2.87
2017-11-27T22:43:49.482Z,3.97
2017-11-27T22:46:16.275Z,4.43
2017-11-27T22:48:42.320Z,2.30
2017-11-27T22:51:08.384Z,5.03
2017-11-27T22:53:35.175Z,4.12
2017-11-27T22:56:01.225Z,4.97
2017-11-27T22:58:27.269Z,4.25
2017-11-27T23:00:54.108Z,4.87
2017-11-27T23:03:20.945Z,3.72
2017-11-27T23:05:47.752Z,3.30
2017-11-27T23:08:13.802Z,6.28
2017-11-27T23:10:39.874Z,5.35
2017-11-27T23:13:05.935Z,3.45
2017-11-27T23:15:32.027Z,3.20
2017-11-27T23:17:58.159Z,3.15
2017-11-27T23:20:24.207Z,3.55
2017-11-27T23:22:50.255Z,4.00
2017-11-27T23:25:17.056Z,4.97
2017-11-27T23:27:43.598Z,4.60
2017-11-27T23:30:09.732Z,5.10
2017-11-27T23:32:35.750Z,5.70
2017-11-27T23:35:01.777Z,4.90
2017-11-27T23:37:29.054Z,4.60
2017-11-27T23:39:55.822Z,5.05
2017-11-27T23:42:21.851Z,5.87
2017-11-27T23:44:47.876Z,5.18
2017-11-27T23:47:13.902Z,4.30
2017-11-27T23:49:40.008Z,5.18
2017-11-27T23:52:06.052Z,3.30
2017-11-27T23:54:35.389Z,5.12
2017-11-27T23:57:04.186Z,3.90
2017-11-27T23:59:30.816Z,3.20
